Aérodrome :
LOGIN :

S'inscrire | Disclaimer

   EN    FR    IT 

 










Légende :    VFR   VFR Marginal   IFR   IFR Intensif   IFR Très Intensif
Visi : 
Plafond : 
>= 8 km
>= 3000ft
5 à 8 km
1000 à 3000 ft
1500m à 5 km
500 à 1000 ft
800 à 1500m
200 à 500 ft
< 800m
< 200 ft
Symboles :   Orages  Brouillard  Fortes neiges  Fortes précipitations  Vent > 20 kt
SIGMETs :   Divers  Orages  Givrage  Turbulence  Onde Orograph.  Cendres Volcan.







- Altitude de l'aérodrome : 65 ft
- Code IATA : PIK
- Voir les cartes d'approche


EGPK - Glasgow Prestwick

DERNIER METAR :
  • 212320Z 00000KT 9999 -RA SCT026 BKN045 03/02 Q1000

METARs EXPIRÉS :
  • 212250Z VRB02KT 9999 -RA SCT026 BKN045 03/02 Q1000
  • 212220Z 12002KT 9999 SCT028 03/02 Q1000
  • 212150Z 00000KT 9999 -RA SCT025 03/02 Q1001
  • 212120Z 33006KT 310V010 9000 -RA BKN014 03/02 Q1001
  • 212050Z 30010KT 8000 -RA BKN012 04/03 Q1001

TAF TAF EGPK
Valide du 22 à 00h jusqu'au 23 à 00h UTC


212255Z 2200/2224 30008KT 9999 SCT030
TEMPO 2200/2208 6000 SHRA SHRAGS BKN010
PROB40
TEMPO 2208/2224 28015G25KT 4000 SHRAGS SHRASN BKN008CB
Pas de NOTAMs connus pour ce terrain.



MET'MAP, la Météo Aéronautique d'un coup d'oeil ! - Copyright ORBIFLY Décembre 2007 - Disclaimer

ORBIFLY MET'MAP TEAM :

Programmation & Développement : Alexandra Zaïnal
Conception & Développement : Baudouin d'Aumeries
Co-Programmation & Développement : Marc-Olivier Méhu
Soutien technique & logistique : Manuel Goepfert

Contact : metmap@orbifly.com




SOURCES & CREDITS :

   NOAA